Time;durP1;ratioP1;P1;durP2;ratioP2;P2;SDS_P1;SDS_P2;PMS_P1;PMS_P2;Temp;Humidity;BMP_temperature;BMP_pressure;BME280_temperature;BME280_humidity;BME280_pressure;Samples;Min_cycle;Max_cycle;Signal;HPM_P1;HPM_P2
2023/10/14 00:00:28;;;;;;;;;;;;;;;27.21;31.81;101183.44;5087767;28;1007;-25
2023/10/14 00:02:53;;;;;;;;;;;;;;;27.12;32.08;101174.50;5098062;28;1015;-25
2023/10/14 00:05:20;;;;;;;;;;;;;;;27.01;32.18;101176.53;5094284;28;862;-28
2023/10/14 00:07:45;;;;;;;;;;;;;;;27.12;31.75;101169.09;5093467;28;1101;-26
2023/10/14 00:10:12;;;;;;;;;;;;;;;27.04;32.20;101167.28;5089524;28;1968;-25
2023/10/14 00:12:39;;;;;;;;;;;;;;;27.09;31.87;101170.28;5062611;28;1380;-27
2023/10/14 00:15:05;;;;;;;;;;;;;;;27.05;32.06;101155.44;5078260;28;1114;-25
2023/10/14 00:17:36;;;;;;;;;;;;;;;27.08;32.29;101159.63;5094235;28;1043;-29
2023/10/14 00:20:03;;;;;;;;;;;;;;;26.95;32.22;101157.44;5098075;28;1081;-28
2023/10/14 00:22:29;;;;;;;;;;;;;;;26.97;32.56;101156.28;5092390;28;1157;-26
2023/10/14 00:24:58;;;;;;;;;;;;;;;27.02;32.27;101155.78;5090491;28;1102;-28
2023/10/14 00:27:24;;;;;;;;;;;;;;;27.16;32.46;101151.50;5097782;28;1070;-28
2023/10/14 00:30:09;;;;;;;;;;;;;;;27.19;32.35;101147.66;5080135;28;917;-26
2023/10/14 00:32:35;;;;;;;;;;;;;;;27.17;32.20;101149.66;5059689;28;1063;-27
2023/10/14 00:35:03;;;;;;;;;;;;;;;27.12;32.08;101142.94;5092531;28;1115;-27
2023/10/14 00:37:32;;;;;;;;;;;;;;;27.09;32.39;101143.25;5097742;28;1141;-26
2023/10/14 00:40:04;;;;;;;;;;;;;;;27.12;32.44;101137.53;5096792;28;1051;-26
2023/10/14 00:42:29;;;;;;;;;;;;;;;27.17;32.24;101144.25;5097561;28;1094;-26
2023/10/14 00:44:56;;;;;;;;;;;;;;;27.18;32.11;101130.59;5079179;28;1222;-28
2023/10/14 00:47:24;;;;;;;;;;;;;;;27.24;32.35;101129.06;5079616;28;1142;-26
2023/10/14 00:49:52;;;;;;;;;;;;;;;27.12;32.45;101120.50;5066051;28;1191;-27
2023/10/14 00:52:21;;;;;;;;;;;;;;;27.04;32.68;101120.50;5093539;28;1972;-29
2023/10/14 00:55:12;;;;;;;;;;;;;;;27.06;32.04;101121.19;5072794;28;1290;-25
2023/10/14 00:57:39;;;;;;;;;;;;;;;27.01;32.41;101125.25;5091048;28;1050;-26
2023/10/14 01:00:10;;;;;;;;;;;;;;;26.87;32.40;101110.59;5097471;28;1046;-27
2023/10/14 01:02:38;;;;;;;;;;;;;;;27.10;31.74;101117.13;5081983;28;1119;-26
2023/10/14 01:05:09;;;;;;;;;;;;;;;27.09;32.25;101108.16;5077686;28;837;-27
2023/10/14 01:07:38;;;;;;;;;;;;;;;27.04;32.02;101115.13;5079401;28;1066;-26
2023/10/14 01:10:05;;;;;;;;;;;;;;;26.92;32.39;101106.50;5097600;28;1134;-25
2023/10/14 01:12:45;;;;;;;;;;;;;;;27.09;32.19;101110.84;5082800;28;1910;-27
2023/10/14 01:15:17;;;;;;;;;;;;;;;27.07;32.27;101104.81;5097099;28;1038;-27
2023/10/14 01:17:43;;;;;;;;;;;;;;;26.99;31.90;101111.03;5083331;28;1185;-29
2023/10/14 01:22:51;;;;;;;;;;;;;;;27.06;32.07;101097.72;5096670;28;1007;-29
2023/10/14 01:25:18;;;;;;;;;;;;;;;27.07;32.12;101103.97;5078883;28;1554;-25
2023/10/14 01:27:44;;;;;;;;;;;;;;;27.16;32.02;101102.09;5078789;28;1070;-30
2023/10/14 01:30:18;;;;;;;;;;;;;;;27.01;32.07;101106.34;5061125;28;1968;-28
2023/10/14 01:35:19;;;;;;;;;;;;;;;26.99;31.86;101097.53;5079353;28;1163;-26
2023/10/14 01:37:46;;;;;;;;;;;;;;;27.05;31.88;101104.13;5088387;28;1198;-27
2023/10/14 01:42:50;;;;;;;;;;;;;;;26.82;32.03;101104.84;5083260;28;1000;-27
2023/10/14 01:45:20;;;;;;;;;;;;;;;27.08;31.81;101092.13;5083110;28;1211;-27
2023/10/14 01:47:49;;;;;;;;;;;;;;;26.98;31.92;101103.97;5082748;28;1062;-27
2023/10/14 01:50:15;;;;;;;;;;;;;;;27.09;31.87;101091.97;5070619;28;1909;-27
2023/10/14 01:52:41;;;;;;;;;;;;;;;27.04;31.78;101090.81;5059532;28;1063;-29
2023/10/14 01:55:08;;;;;;;;;;;;;;;27.05;31.58;101087.94;5096972;28;1047;-29
2023/10/14 01:57:36;;;;;;;;;;;;;;;27.04;31.71;101086.28;5096003;28;1077;-27
2023/10/14 02:00:12;;;;;;;;;;;;;;;26.63;32.67;101084.47;5077900;28;1273;-31
2023/10/14 02:02:48;;;;;;;;;;;;;;;26.76;32.48;101090.19;5095515;28;1055;-27
2023/10/14 02:05:15;;;;;;;;;;;;;;;26.90;32.16;101087.78;5071116;28;1098;-27
2023/10/14 02:07:41;;;;;;;;;;;;;;;27.13;32.08;101087.91;5079709;28;1107;-26
2023/10/14 02:10:12;;;;;;;;;;;;;;;27.18;31.76;101100.88;5095647;28;1050;-25
2023/10/14 02:12:37;;;;;;;;;;;;;;;27.06;31.94;101096.88;5078278;28;1268;-25
2023/10/14 02:15:08;;;;;;;;;;;;;;;27.06;31.70;101088.78;5068948;28;1083;-25
2023/10/14 02:17:33;;;;;;;;;;;;;;;27.06;31.74;101092.31;5062760;28;1151;-28
2023/10/14 02:20:09;;;;;;;;;;;;;;;27.10;31.58;101093.66;5069412;28;1194;-26
2023/10/14 02:22:38;;;;;;;;;;;;;;;27.09;31.80;101091.13;5069500;28;1410;-26
2023/10/14 02:25:04;;;;;;;;;;;;;;;27.07;31.56;101094.00;5043124;28;1302;-26
2023/10/14 02:27:30;;;;;;;;;;;;;;;27.06;31.51;101091.50;5060273;28;1399;-29
2023/10/14 02:29:57;;;;;;;;;;;;;;;27.06;31.51;101092.31;5076251;28;1435;-30
2023/10/14 02:32:22;;;;;;;;;;;;;;;27.21;31.39;101089.72;5071035;28;2008;-31
2023/10/14 02:34:50;;;;;;;;;;;;;;;26.99;31.91;101080.50;5068333;28;1330;-26
2023/10/14 02:37:16;;;;;;;;;;;;;;;27.04;31.78;101085.41;5040680;28;1103;-25
2023/10/14 02:39:44;;;;;;;;;;;;;;;27.12;31.75;101090.78;5058805;28;1317;-30
2023/10/14 02:42:10;;;;;;;;;;;;;;;27.21;31.30;101091.59;5073740;28;2441;-25
2023/10/14 02:47:37;;;;;;;;;;;;;;;26.29;34.01;101086.34;5045882;28;2049;-28
2023/10/14 02:50:07;;;;;;;;;;;;;;;26.41;34.13;101082.31;5084592;28;2105;-28
2023/10/14 02:52:38;;;;;;;;;;;;;;;26.35;34.24;101091.09;5079117;28;1961;-27
2023/10/14 02:55:22;;;;;;;;;;;;;;;26.42;34.50;101085.88;5083475;28;1848;-28
2023/10/14 02:57:47;;;;;;;;;;;;;;;26.47;35.10;101082.66;5066289;28;2156;-27
2023/10/14 03:00:20;;;;;;;;;;;;;;;26.57;34.44;101082.47;5063148;28;1145;-26
2023/10/14 03:02:51;;;;;;;;;;;;;;;26.10;36.14;101087.53;5057125;28;1079;-26
2023/10/14 03:08:16;;;;;;;;;;;;;;;26.02;36.38;101091.91;5038967;28;1529;-29
2023/10/14 03:10:55;;;;;;;;;;;;;;;25.96;36.18;101084.47;5062211;28;1905;-27
2023/10/14 03:13:22;;;;;;;;;;;;;;;25.97;35.87;101090.72;5071826;28;1391;-28
2023/10/14 03:15:52;;;;;;;;;;;;;;;25.96;36.01;101092.56;5065182;28;1396;-26
2023/10/14 03:18:18;;;;;;;;;;;;;;;25.98;35.88;101076.22;5067346;28;1451;-26
2023/10/14 03:23:19;;;;;;;;;;;;;;;25.79;36.27;101083.63;5078561;28;1466;-27
2023/10/14 03:25:49;;;;;;;;;;;;;;;26.19;35.39;101086.53;5085207;28;980;-26
2023/10/14 03:28:15;;;;;;;;;;;;;;;26.14;34.97;101081.63;5077261;28;1860;-25
2023/10/14 03:30:44;;;;;;;;;;;;;;;26.04;35.11;101079.09;5077976;28;1898;-25
2023/10/14 03:33:14;;;;;;;;;;;;;;;26.14;34.57;101086.19;5078670;28;1034;-28
2023/10/14 03:35:45;;;;;;;;;;;;;;;26.04;34.70;101079.09;5091428;28;1079;-26
2023/10/14 03:38:25;;;;;;;;;;;;;;;26.12;34.86;101082.81;5067066;28;1052;-29
2023/10/14 03:41:03;;;;;;;;;;;;;;;25.65;34.12;101083.25;5088227;28;1190;-28
2023/10/14 03:44:15;;;;;;;;;;;;;;;25.63;33.15;101079.03;5091530;28;1079;-27
2023/10/14 03:46:31;;;;;;;;;;;;;;;25.35;33.12;101081.94;5085685;28;1496;-26
2023/10/14 03:48:57;;;;;;;;;;;;;;;23.90;34.70;101079.47;5087699;28;990;-26
2023/10/14 03:51:25;;;;;;;;;;;;;;;24.73;33.25;101078.41;5075365;28;1976;-25
2023/10/14 03:53:54;;;;;;;;;;;;;;;24.52;33.04;101072.44;5075235;28;1009;-27
2023/10/14 03:56:21;;;;;;;;;;;;;;;24.44;32.90;101069.69;5077674;28;1083;-26
2023/10/14 03:58:55;;;;;;;;;;;;;;;24.03;33.55;101070.16;5084330;28;2712;-25
2023/10/14 04:01:28;;;;;;;;;;;;;;;24.51;33.89;101064.50;5084202;28;1089;-30
2023/10/14 04:03:54;;;;;;;;;;;;;;;24.41;33.49;101065.44;5098368;28;1046;-27
2023/10/14 04:06:19;;;;;;;;;;;;;;;24.56;33.33;101063.03;5095767;28;1030;-29
2023/10/14 04:08:48;;;;;;;;;;;;;;;25.30;31.71;101067.16;5098321;28;1130;-27
2023/10/14 04:11:17;;;;;;;;;;;;;;;25.75;31.42;101056.16;5064778;28;1910;-28
2023/10/14 04:13:51;;;;;;;;;;;;;;;26.06;30.89;101062.75;5091693;28;1239;-26
2023/10/14 04:16:27;;;;;;;;;;;;;;;26.23;30.58;101065.44;5098598;28;1006;-26
2023/10/14 04:19:04;;;;;;;;;;;;;;;26.27;30.30;101075.75;5088100;28;1066;-25
2023/10/14 04:21:36;;;;;;;;;;;;;;;26.34;30.33;101077.78;5087305;28;1178;-28
2023/10/14 04:24:12;;;;;;;;;;;;;;;26.27;30.65;101080.28;5090764;28;1117;-28
2023/10/14 04:26:41;;;;;;;;;;;;;;;26.24;30.68;101081.44;5078184;28;1114;-26
2023/10/14 04:29:12;;;;;;;;;;;;;;;26.56;30.20;101080.78;5084343;28;2493;-29
2023/10/14 04:31:39;;;;;;;;;;;;;;;26.43;30.80;101082.16;5093112;28;1906;-26
2023/10/14 04:34:08;;;;;;;;;;;;;;;26.51;30.52;101083.97;5089826;28;1038;-27
2023/10/14 04:36:37;;;;;;;;;;;;;;;26.63;30.48;101090.72;5091319;28;1210;-26
2023/10/14 04:39:15;;;;;;;;;;;;;;;26.63;30.61;101089.88;5077509;28;1023;-28
2023/10/14 04:41:58;;;;;;;;;;;;;;;26.70;30.46;101085.47;5090475;28;1082;-24
2023/10/14 04:44:28;;;;;;;;;;;;;;;26.68;31.01;101090.19;5085004;28;1019;-26
2023/10/14 04:47:01;;;;;;;;;;;;;;;26.63;30.90;101092.56;5096629;28;1047;-26
2023/10/14 04:49:35;;;;;;;;;;;;;;;26.74;31.11;101091.38;5083312;28;1066;-27
2023/10/14 04:52:02;;;;;;;;;;;;;;;26.73;31.35;101093.22;5072811;28;1905;-26
2023/10/14 04:54:29;;;;;;;;;;;;;;;26.80;31.32;101093.38;5082045;28;923;-27
2023/10/14 04:56:57;;;;;;;;;;;;;;;26.73;31.72;101093.22;5088135;28;1131;-27
2023/10/14 04:59:24;;;;;;;;;;;;;;;26.56;31.80;101068.13;5079433;28;939;-25
2023/10/14 05:01:50;;;;;;;;;;;;;;;26.90;31.52;101095.88;5073386;28;1095;-27
2023/10/14 05:04:20;;;;;;;;;;;;;;;26.76;31.71;101090.19;5077357;28;1520;-27
2023/10/14 05:06:52;;;;;;;;;;;;;;;26.82;31.45;101098.59;5090566;28;1003;-28
2023/10/14 05:09:30;;;;;;;;;;;;;;;26.74;31.63;101097.59;5096900;28;1491;-25
2023/10/14 05:11:57;;;;;;;;;;;;;;;26.78;31.78;101101.66;5061166;28;1906;-27
2023/10/14 05:14:34;;;;;;;;;;;;;;;26.73;31.69;101095.94;5068359;28;1076;-26
2023/10/14 05:17:33;;;;;;;;;;;;;;;26.69;32.15;101094.59;5079917;28;1087;-27
2023/10/14 05:19:57;;;;;;;;;;;;;;;26.89;31.80;101099.63;5080895;28;1314;-25
2023/10/14 05:22:37;;;;;;;;;;;;;;;26.86;32.28;101100.78;5076915;28;1074;-28
2023/10/14 05:25:08;;;;;;;;;;;;;;;26.90;31.98;101093.19;5074186;28;1079;-28
2023/10/14 05:27:46;;;;;;;;;;;;;;;26.87;32.13;101102.50;5090937;28;1924;-25
2023/10/14 05:30:15;;;;;;;;;;;;;;;26.86;32.26;101094.56;5077022;28;1105;-27
2023/10/14 05:32:43;;;;;;;;;;;;;;;26.87;32.19;101102.50;5063078;28;1914;-25
2023/10/14 05:35:09;;;;;;;;;;;;;;;26.87;32.17;101101.63;5060564;28;1139;-25
2023/10/14 05:37:36;;;;;;;;;;;;;;;26.93;31.98;101100.94;5079855;28;1113;-26
2023/10/14 05:40:01;;;;;;;;;;;;;;;27.10;31.99;101098.22;5077230;28;1253;-27
2023/10/14 05:42:27;;;;;;;;;;;;;;;27.06;32.12;101105.81;5085170;28;1120;-25
2023/10/14 05:44:57;;;;;;;;;;;;;;;26.99;32.15;101102.13;5065271;28;1011;-24
2023/10/14 05:47:27;;;;;;;;;;;;;;;27.03;32.24;101106.16;5078330;28;1067;-27
2023/10/14 05:49:52;;;;;;;;;;;;;;;26.95;32.63;101104.31;5075922;28;1154;-27
2023/10/14 05:52:21;;;;;;;;;;;;;;;27.05;32.18;101101.44;5083212;28;1982;-26
2023/10/14 05:54:48;;;;;;;;;;;;;;;27.04;32.48;101105.16;5088947;28;1090;-28
2023/10/14 05:57:16;;;;;;;;;;;;;;;27.04;32.37;101110.56;5086290;28;2351;-27
2023/10/14 05:59:43;;;;;;;;;;;;;;;26.99;32.31;101115.63;5072813;28;1004;-26
2023/10/14 06:02:12;;;;;;;;;;;;;;;27.12;32.47;101110.53;5087367;28;1036;-26
2023/10/14 06:04:41;;;;;;;;;;;;;;;27.11;32.09;101108.03;5089570;28;1115;-26
2023/10/14 06:07:07;;;;;;;;;;;;;;;27.14;32.13;101111.19;5077708;28;1099;-25
2023/10/14 06:09:32;;;;;;;;;;;;;;;27.06;32.45;101107.69;5064710;28;1053;-26
2023/10/14 06:11:58;;;;;;;;;;;;;;;27.12;32.38;101107.84;5087003;28;1970;-26
2023/10/14 06:14:25;;;;;;;;;;;;;;;27.08;32.52;101114.59;5093777;28;1086;-24
2023/10/14 06:16:50;;;;;;;;;;;;;;;27.23;31.86;101109.31;5084687;28;1155;-27
2023/10/14 06:19:18;;;;;;;;;;;;;;;27.37;31.89;101102.34;5094309;28;1011;-27
2023/10/14 06:21:44;;;;;;;;;;;;;;;27.38;31.88;101109.41;5093749;28;1118;-24
2023/10/14 06:24:12;;;;;;;;;;;;;;;27.46;31.54;101110.41;5095809;28;1039;-23
2023/10/14 06:26:38;;;;;;;;;;;;;;;27.43;31.76;101100.78;5069704;28;996;-24
2023/10/14 06:29:05;;;;;;;;;;;;;;;27.50;31.75;101109.88;5082243;28;2661;-25
2023/10/14 06:31:30;;;;;;;;;;;;;;;27.57;31.50;101103.75;5086735;28;1914;-27
2023/10/14 06:33:56;;;;;;;;;;;;;;;27.39;31.95;101102.16;5069895;28;1118;-25
2023/10/14 06:36:24;;;;;;;;;;;;;;;27.41;31.65;101105.50;5081551;28;1030;-24
2023/10/14 06:38:50;;;;;;;;;;;;;;;27.53;31.87;101110.53;5088526;28;1221;-24
2023/10/14 06:41:18;;;;;;;;;;;;;;;27.55;31.48;101108.47;5062898;28;1015;-27
2023/10/14 06:43:47;;;;;;;;;;;;;;;27.54;31.73;101110.34;5085758;28;891;-26
2023/10/14 06:46:12;;;;;;;;;;;;;;;27.49;31.36;101072.22;5075207;28;1151;-27
2023/10/14 06:48:41;;;;;;;;;;;;;;;27.55;31.70;101108.47;5065774;28;1127;-25
2023/10/14 06:51:09;;;;;;;;;;;;;;;27.61;31.43;101096.97;5082722;28;1918;-27
2023/10/14 06:53:35;;;;;;;;;;;;;;;27.66;31.41;101107.25;5066571;28;1147;-26
2023/10/14 06:56:01;;;;;;;;;;;;;;;27.61;31.79;101110.50;5083990;28;1011;-27
2023/10/14 06:58:28;;;;;;;;;;;;;;;27.45;31.59;101079.84;5091537;28;2509;-29
2023/10/14 07:00:55;;;;;;;;;;;;;;;27.65;31.43;101106.41;5094042;28;1109;-25
2023/10/14 07:03:22;;;;;;;;;;;;;;;27.56;32.06;101105.59;5099886;28;1074;-25
2023/10/14 07:08:23;;;;;;;;;;;;;;;27.66;31.69;101097.25;5085486;28;1170;-24
2023/10/14 07:10:51;;;;;;;;;;;;;;;27.55;32.29;101101.22;5074774;28;1905;-28
2023/10/14 07:13:17;;;;;;;;;;;;;;;27.65;31.89;101100.13;5079907;28;1075;-24
2023/10/14 07:15:44;;;;;;;;;;;;;;;27.63;32.03;101098.47;5095639;28;1018;-25
2023/10/14 07:18:13;;;;;;;;;;;;;;;27.63;32.25;101105.72;5079510;28;1043;-23
2023/10/14 07:20:39;;;;;;;;;;;;;;;27.67;32.00;101095.41;5081032;28;1149;-24
2023/10/14 07:23:04;;;;;;;;;;;;;;;27.55;31.87;101068.78;5089461;28;1015;-24
2023/10/14 07:25:39;;;;;;;;;;;;;;;27.73;31.77;101097.41;5085718;28;1099;-26
2023/10/14 07:28:14;;;;;;;;;;;;;;;27.69;31.92;101093.41;5080036;28;2404;-24
2023/10/14 07:30:46;;;;;;;;;;;;;;;27.59;32.27;101086.31;5098721;28;1993;-23
2023/10/14 07:33:15;;;;;;;;;;;;;;;27.62;32.25;101086.00;5079794;28;1027;-26
2023/10/14 07:35:41;;;;;;;;;;;;;;;27.67;31.94;101093.56;5070724;28;1126;-25
2023/10/14 07:38:06;;;;;;;;;;;;;;;27.74;31.95;101080.19;5087696;28;1115;-25
2023/10/14 07:40:34;;;;;;;;;;;;;;;27.78;31.93;101086.09;5091238;28;1095;-24
2023/10/14 07:43:05;;;;;;;;;;;;;;;27.74;32.19;101080.19;5078426;28;1004;-25
2023/10/14 07:45:33;;;;;;;;;;;;;;;27.78;31.93;101078.00;5076547;28;972;-24
2023/10/14 07:47:59;;;;;;;;;;;;;;;27.55;32.17;101081.44;5080187;28;1131;-24
2023/10/14 07:50:25;;;;;;;;;;;;;;;27.67;32.07;101080.03;5072737;28;1942;-25
2023/10/14 07:52:54;;;;;;;;;;;;;;;27.61;32.50;101078.88;5076798;28;1143;-25
2023/10/14 07:55:22;;;;;;;;;;;;;;;27.72;32.11;101071.41;5090036;28;1095;-25
2023/10/14 07:57:48;;;;;;;;;;;;;;;27.75;32.29;101080.03;5078715;28;1860;-25
2023/10/14 08:00:14;;;;;;;;;;;;;;;27.72;32.14;101071.41;5086009;28;1265;-24
2023/10/14 08:02:40;;;;;;;;;;;;;;;27.74;31.88;101077.50;5084575;28;1046;-25
2023/10/14 08:05:06;;;;;;;;;;;;;;;27.70;32.19;101074.31;5098031;28;1030;-27
2023/10/14 08:07:34;;;;;;;;;;;;;;;27.67;32.51;101069.22;5088924;28;1054;-24
2023/10/14 08:10:16;;;;;;;;;;;;;;;27.70;32.05;101066.19;5082963;28;1106;-24
2023/10/14 08:12:45;;;;;;;;;;;;;;;27.68;32.19;101065.53;5066840;28;1906;-23
2023/10/14 08:15:11;;;;;;;;;;;;;;;27.75;32.12;101073.75;5079116;28;1159;-23
2023/10/14 08:17:36;;;;;;;;;;;;;;;27.80;32.57;101070.50;5077925;28;1055;-24
2023/10/14 08:20:12;;;;;;;;;;;;;;;27.70;32.58;101068.06;5090176;28;1233;-26
2023/10/14 08:22:45;;;;;;;;;;;;;;;27.74;32.57;101066.69;5071658;28;1039;-27
2023/10/14 08:25:11;;;;;;;;;;;;;;;27.63;32.98;101066.03;5076440;28;1000;-23
2023/10/14 08:27:36;;;;;;;;;;;;;;;27.74;32.92;101064.81;5086321;28;2295;-25
2023/10/14 08:30:10;;;;;;;;;;;;;;;27.76;32.80;101061.91;5072305;28;1108;-25
2023/10/14 08:32:42;;;;;;;;;;;;;;;27.81;32.66;101061.41;5087055;28;1906;-27
2023/10/14 08:35:14;;;;;;;;;;;;;;;27.81;32.58;101064.09;5090730;28;1026;-28
2023/10/14 08:37:41;;;;;;;;;;;;;;;27.86;32.43;101064.41;5068235;28;940;-25
2023/10/14 08:40:07;;;;;;;;;;;;;;;27.92;32.36;101060.13;5095211;28;1126;-23
2023/10/14 08:42:33;;;;;;;;;;;;;;;27.65;32.60;101025.31;5090483;28;1090;-24
2023/10/14 08:45:00;;;;;;;;;;;;;;;27.90;32.36;101060.31;5061878;28;896;-25
2023/10/14 08:47:26;;;;;;;;;;;;;;;27.92;32.52;101054.72;5053944;28;1063;-24
2023/10/14 08:49:51;;;;;;;;;;;;;;;27.81;32.87;101062.22;5080874;28;1032;-24
2023/10/14 08:52:18;;;;;;;;;;;;;;;27.75;33.00;101050.28;5074273;28;1979;-24
2023/10/14 08:54:43;;;;;;;;;;;;;;;27.82;32.67;101049.56;5071372;28;1051;-24
2023/10/14 08:57:09;;;;;;;;;;;;;;;27.78;32.79;101051.78;5067196;28;2345;-24
2023/10/14 08:59:34;;;;;;;;;;;;;;;27.87;32.49;101053.41;5080067;28;1004;-28
2023/10/14 09:02:00;;;;;;;;;;;;;;;27.81;32.66;101051.41;5092307;28;1066;-23
2023/10/14 09:04:26;;;;;;;;;;;;;;;27.85;32.54;101041.09;5077037;28;1091;-23
2023/10/14 09:06:52;;;;;;;;;;;;;;;27.78;32.61;101042.84;5095147;28;1082;-24
2023/10/14 09:09:23;;;;;;;;;;;;;;;27.90;32.53;101041.38;5094819;28;1005;-24
2023/10/14 09:11:48;;;;;;;;;;;;;;;27.71;33.08;101037.31;5083364;28;1898;-24
2023/10/14 09:14:16;;;;;;;;;;;;;;;27.70;33.25;101039.16;5081606;28;1094;-23
2023/10/14 09:16:42;;;;;;;;;;;;;;;27.67;33.21;101035.94;5083209;28;1082;-26
2023/10/14 09:19:08;;;;;;;;;;;;;;;27.74;32.98;101039.66;5079590;28;1174;-23
2023/10/14 09:21:43;;;;;;;;;;;;;;;27.60;33.12;101036.69;5090987;28;1130;-24
2023/10/14 09:24:08;;;;;;;;;;;;;;;27.73;33.10;101030.69;5070342;28;1146;-24
2023/10/14 09:26:38;;;;;;;;;;;;;;;27.66;32.90;101028.88;5071324;28;1205;-24
2023/10/14 09:29:04;;;;;;;;;;;;;;;27.66;32.90;101029.69;5070029;28;2355;-24
2023/10/14 09:31:29;;;;;;;;;;;;;;;27.57;33.23;101022.69;5083592;28;1972;-24
2023/10/14 09:33:55;;;;;;;;;;;;;;;27.61;33.18;101015.91;5076756;28;1465;-24
2023/10/14 09:36:22;;;;;;;;;;;;;;;27.60;33.05;101015.06;5096103;28;1054;-25
2023/10/14 09:38:53;;;;;;;;;;;;;;;27.55;33.61;101005.78;5075345;28;1151;-24
2023/10/14 09:41:19;;;;;;;;;;;;;;;27.76;32.91;101005.16;5095289;28;992;-24
2023/10/14 09:43:48;;;;;;;;;;;;;;;27.91;32.76;101002.50;5060579;28;1151;-24
2023/10/14 09:46:20;;;;;;;;;;;;;;;27.91;32.89;101002.50;5075502;28;1178;-23
2023/10/14 09:48:45;;;;;;;;;;;;;;;27.79;33.22;100991.31;5077109;28;1147;-24
2023/10/14 09:51:13;;;;;;;;;;;;;;;27.87;33.00;100995.78;5089899;28;1902;-24
2023/10/14 09:53:39;;;;;;;;;;;;;;;27.85;32.89;100987.88;5068110;28;1151;-26
2023/10/14 09:56:07;;;;;;;;;;;;;;;27.96;32.56;100978.47;5082416;28;1178;-24
2023/10/14 09:58:36;;;;;;;;;;;;;;;28.04;32.54;100980.28;5065872;28;2545;-25
2023/10/14 10:01:03;;;;;;;;;;;;;;;27.98;32.76;100976.41;5089559;28;926;-23
2023/10/14 10:03:31;;;;;;;;;;;;;;;27.95;32.55;100975.94;5086385;28;1127;-24
2023/10/14 10:06:02;;;;;;;;;;;;;;;27.99;32.83;100966.47;5078347;28;1167;-25
2023/10/14 10:08:31;;;;;;;;;;;;;;;27.97;32.51;100958.53;5052895;28;1210;-25
2023/10/14 10:10:57;;;;;;;;;;;;;;;28.01;32.60;100966.28;5077230;28;1898;-23
2023/10/14 10:13:25;;;;;;;;;;;;;;;27.97;32.88;100958.53;5057522;28;1083;-23
2023/10/14 10:15:51;;;;;;;;;;;;;;;27.95;32.87;100951.59;5071182;28;1080;-25
2023/10/14 10:18:16;;;;;;;;;;;;;;;27.98;32.81;100951.25;5070914;28;1082;-25
2023/10/14 10:20:51;;;;;;;;;;;;;;;27.95;32.58;100938.94;5079603;28;1067;-24
2023/10/14 10:23:16;;;;;;;;;;;;;;;27.95;32.89;100944.34;5083145;28;1124;-24
2023/10/14 10:25:49;;;;;;;;;;;;;;;27.98;32.71;100938.56;5093913;28;1056;-24
2023/10/14 10:28:25;;;;;;;;;;;;;;;27.91;33.08;100939.50;5071631;28;1908;-25
2023/10/14 10:30:51;;;;;;;;;;;;;;;27.99;32.95;100939.41;5062290;28;1902;-24
2023/10/14 10:33:17;;;;;;;;;;;;;;;28.07;33.02;100924.97;5089524;28;956;-24
2023/10/14 10:35:58;;;;;;;;;;;;;;;27.93;33.09;100923.91;5095830;28;1098;-26
2023/10/14 10:38:24;;;;;;;;;;;;;;;27.98;34.62;100916.94;5081897;28;999;-28
2023/10/14 10:41:07;;;;;;;;;;;;;;;27.97;33.58;100917.13;5085633;28;980;-27
2023/10/14 10:43:36;;;;;;;;;;;;;;;27.84;33.84;100906.94;5087960;28;1046;-24
2023/10/14 10:46:03;;;;;;;;;;;;;;;27.93;33.52;100908.53;5082142;28;824;-26
2023/10/14 10:48:38;;;;;;;;;;;;;;;27.99;33.48;100906.97;5055053;28;1059;-24
2023/10/14 10:51:04;;;;;;;;;;;;;;;28.15;32.77;100905.94;5089319;28;1902;-26
2023/10/14 10:53:32;;;;;;;;;;;;;;;28.38;32.33;100912.31;5093881;28;1159;-24
2023/10/14 10:55:57;;;;;;;;;;;;;;;28.15;33.08;100905.94;5081086;28;1099;-29
2023/10/14 10:58:23;;;;;;;;;;;;;;;28.20;33.01;100898.13;5049409;28;2297;-25
2023/10/14 11:00:50;;;;;;;;;;;;;;;28.15;33.25;100902.38;5065164;28;1112;-27
2023/10/14 11:03:16;;;;;;;;;;;;;;;28.23;33.05;100897.72;5071169;28;1055;-25
2023/10/14 11:05:42;;;;;;;;;;;;;;;28.15;33.08;100892.41;5083731;28;1079;-25
2023/10/14 11:08:08;;;;;;;;;;;;;;;28.16;32.89;100890.56;5075262;28;1174;-23
2023/10/14 11:10:34;;;;;;;;;;;;;;;28.07;33.33;100887.09;5087606;28;1902;-26
2023/10/14 11:12:59;;;;;;;;;;;;;;;28.15;33.31;100886.16;5065134;28;1112;-26
2023/10/14 11:15:25;;;;;;;;;;;;;;;28.19;33.33;100884.78;5071327;28;929;-23
2023/10/14 11:17:52;;;;;;;;;;;;;;;28.21;33.40;100880.03;5091819;28;1007;-29
2023/10/14 11:20:17;;;;;;;;;;;;;;;28.22;32.93;100881.69;5070751;28;1091;-26
2023/10/14 11:22:43;;;;;;;;;;;;;;;28.13;33.27;100877.41;5070899;28;977;-27
2023/10/14 11:25:10;;;;;;;;;;;;;;;28.14;33.10;100874.53;5082726;28;999;-25
2023/10/14 11:27:36;;;;;;;;;;;;;;;28.15;32.84;100870.78;5068178;28;2469;-24
2023/10/14 11:30:01;;;;;;;;;;;;;;;28.14;33.47;100868.28;5071978;28;1186;-28
2023/10/14 11:32:27;;;;;;;;;;;;;;;28.13;33.16;100863.91;5094699;28;1988;-26
2023/10/14 11:34:52;;;;;;;;;;;;;;;28.13;33.31;100867.41;5085960;28;1119;-24
2023/10/14 11:37:18;;;;;;;;;;;;;;;28.09;33.38;100856.13;5089330;28;1074;-25
2023/10/14 11:39:45;;;;;;;;;;;;;;;28.09;33.45;100861.53;5077922;28;1214;-23
2023/10/14 11:42:12;;;;;;;;;;;;;;;28.17;33.13;100857.06;5082932;28;1114;-26
2023/10/14 11:44:38;;;;;;;;;;;;;;;28.19;32.90;100853.16;5079726;28;1155;-23
2023/10/14 11:47:07;;;;;;;;;;;;;;;27.97;33.11;100846.81;5093966;28;891;-23
2023/10/14 11:49:34;;;;;;;;;;;;;;;27.89;33.76;100845.06;5074186;28;1151;-24
2023/10/14 11:52:00;;;;;;;;;;;;;;;27.90;34.93;100849.44;5079441;28;1979;-26
2023/10/14 11:54:25;;;;;;;;;;;;;;;27.94;35.07;100841.78;5073025;28;1181;-27
2023/10/14 11:56:51;;;;;;;;;;;;;;;27.84;35.42;100833.97;5086571;28;991;-25
2023/10/14 11:59:17;;;;;;;;;;;;;;;27.84;34.91;100836.66;5076119;28;2526;-25
2023/10/14 12:01:45;;;;;;;;;;;;;;;27.87;34.95;100834.44;5090433;28;1122;-26
2023/10/14 12:04:11;;;;;;;;;;;;;;;27.79;34.96;100833.69;5077899;28;1075;-25
2023/10/14 12:06:36;;;;;;;;;;;;;;;27.94;34.53;100834.53;5078032;28;1169;-24
2023/10/14 12:09:10;;;;;;;;;;;;;;;27.83;34.97;100833.13;5092562;28;1151;-25
2023/10/14 12:11:41;;;;;;;;;;;;;;;27.87;35.04;100825.47;5089399;28;1901;-25
2023/10/14 12:14:15;;;;;;;;;;;;;;;27.97;34.91;100830.59;5074259;28;1066;-24
2023/10/14 12:16:40;;;;;;;;;;;;;;;27.80;34.77;100819.13;5080314;28;1117;-28
2023/10/14 12:19:06;;;;;;;;;;;;;;;27.81;34.77;100828.94;5097510;28;1018;-23
2023/10/14 12:21:31;;;;;;;;;;;;;;;27.80;34.86;100822.69;5087150;28;1118;-24
2023/10/14 12:24:02;;;;;;;;;;;;;;;27.86;34.78;100819.22;5096050;28;1167;-24
2023/10/14 12:26:30;;;;;;;;;;;;;;;27.80;35.12;100819.97;5086512;28;1111;-24
2023/10/14 12:28:56;;;;;;;;;;;;;;;27.72;35.01;100811.97;5075827;28;2387;-24
2023/10/14 12:31:23;;;;;;;;;;;;;;;27.75;35.04;100804.31;5085381;28;1967;-23
2023/10/14 12:33:49;;;;;;;;;;;;;;;27.75;35.08;100807.03;5079297;28;1107;-24
2023/10/14 12:36:17;;;;;;;;;;;;;;;28.16;33.77;100802.13;5090484;28;1000;-24
2023/10/14 12:38:42;;;;;;;;;;;;;;;28.20;33.72;100808.00;5091539;28;1021;-23
2023/10/14 12:41:08;;;;;;;;;;;;;;;28.18;33.48;100805.50;5064201;28;1047;-26
2023/10/14 12:43:39;;;;;;;;;;;;;;;28.29;33.43;100797.94;5064521;28;1024;-24
2023/10/14 12:48:43;;;;;;;;;;;;;;;28.33;33.33;100796.53;5097930;28;1090;-25
2023/10/14 12:51:11;;;;;;;;;;;;;;;28.29;33.27;100784.41;5097256;28;1968;-23
2023/10/14 12:53:37;;;;;;;;;;;;;;;28.41;33.06;100790.19;5087759;28;1010;-24
2023/10/14 12:56:03;;;;;;;;;;;;;;;28.33;33.31;100789.25;5079852;28;1145;-23
2023/10/14 12:58:29;;;;;;;;;;;;;;;28.54;32.93;100782.22;5090673;28;2072;-25
2023/10/14 13:00:56;;;;;;;;;;;;;;;28.44;32.86;100770.88;5080478;28;1103;-24
2023/10/14 13:03:23;;;;;;;;;;;;;;;28.53;33.02;100769.72;5087102;28;1082;-25
2023/10/14 13:05:52;;;;;;;;;;;;;;;28.55;33.07;100774.91;5096347;28;1554;-24
2023/10/14 13:08:19;;;;;;;;;;;;;;;28.47;32.93;100765.06;5079850;28;1335;-27
2023/10/14 13:10:45;;;;;;;;;;;;;;;28.42;33.13;100765.66;5082905;28;1918;-25
2023/10/14 13:13:12;;;;;;;;;;;;;;;28.57;33.06;100770.16;5077677;28;1020;-24
2023/10/14 13:15:37;;;;;;;;;;;;;;;28.47;33.08;100763.22;5066071;28;1178;-25